Harrisburg International Airport Harrisburg US
ICAO: KMDT
IATA: MDT
Category: Medium
Scheduled Services: Yes

Elevation: 310 ft
TransAlt. 18000 ft.

Airport Communications:
APP/DEP:118.25
ATIS:118.8
GND:121.7
ANG OPS:39.51
TWR:124.8

KMDT Zoom In..

If you have problems with the map follow the link
https://www.worldairports.se/pages/airport.php?
ICAO=KMDT

Runways:

(A) RW 13 length 10002 ft width 200 ft
ILS 110.90 / hdg 128

(B) RW 31 length 10002 ft width 200 ft
ILS 110.90 / hdg 308

Location; KMDT
Day. 20 / Time. 09.56 Zulu
* Altimeter: 30.20
* Temperature: -04° c. -24.8°f.
* Wind from: 330° Speed 10 kn with Gusts up to 20 kn.
Dewpoint: -11° c.
Visibility: 10 Statute Miles.
Clouds: Broken 3500 ft.

KMDT 200956Z 33010G20KT 10SM BKN035 M04/M11 A3020 RMK AO2 SLP233 T10441106


Wind From 330°
Speed 10 kn.

 
 
jpsmedia worldairports.se 2020   terms of use